createdAt,value
2023-04-12T00:03:59.416Z,19.60
2023-04-12T00:09:05.023Z,19.60
2023-04-12T00:14:08.569Z,19.50
2023-04-12T00:19:11.985Z,19.60
2023-04-12T00:24:16.856Z,19.50
2023-04-12T00:29:20.247Z,19.60
2023-04-12T00:34:23.658Z,19.60
2023-04-12T00:39:29.216Z,19.60
2023-04-12T00:44:33.061Z,19.50
2023-04-12T00:49:36.684Z,19.60
2023-04-12T00:54:42.663Z,19.50
2023-04-12T00:59:47.210Z,19.50
2023-04-12T01:04:51.636Z,19.60
2023-04-12T01:10:01.072Z,19.50
2023-04-12T01:15:09.194Z,19.50
2023-04-12T01:20:17.296Z,19.60
2023-04-12T01:25:39.575Z,19.60
2023-04-12T01:30:44.607Z,19.60
2023-04-12T01:35:48.672Z,19.50
2023-04-12T01:40:52.288Z,19.50
2023-04-12T01:45:57.302Z,19.50
2023-04-12T01:51:06.897Z,19.60
2023-04-12T01:56:11.543Z,19.50
2023-04-12T02:01:17.392Z,19.50
2023-04-12T02:06:21.794Z,19.50
2023-04-12T02:11:25.244Z,19.50
2023-04-12T02:16:32.617Z,19.50
2023-04-12T02:21:42.176Z,19.50
2023-04-12T02:26:46.092Z,19.50
2023-04-12T02:31:51.309Z,19.60
2023-04-12T02:36:54.716Z,19.50
2023-04-12T02:41:58.081Z,19.50
2023-04-12T02:47:02.871Z,19.50
2023-04-12T02:52:06.477Z,19.50
2023-04-12T02:57:11.650Z,19.50
2023-04-12T03:02:16.884Z,19.50
2023-04-12T03:07:21.359Z,19.50
2023-04-12T03:12:24.730Z,19.50
2023-04-12T03:17:29.474Z,19.50
2023-04-12T03:22:32.843Z,19.50
2023-04-12T03:27:36.276Z,19.50
2023-04-12T03:32:42.034Z,19.40
2023-04-12T03:37:45.508Z,19.40
2023-04-12T03:42:48.853Z,19.40
2023-04-12T03:47:53.779Z,19.50
2023-04-12T03:52:57.194Z,19.50
2023-04-12T03:58:00.557Z,19.50
2023-04-12T04:03:06.598Z,19.50
2023-04-12T04:08:10.213Z,19.50
2023-04-12T04:13:13.650Z,19.50
2023-04-12T04:18:18.391Z,19.50
2023-04-12T04:23:22.300Z,19.50
2023-04-12T04:28:25.702Z,19.50
2023-04-12T04:33:31.053Z,19.40
2023-04-12T04:38:34.498Z,19.40
2023-04-12T04:43:40.085Z,19.50
2023-04-12T04:48:44.945Z,19.40
2023-04-12T04:53:48.851Z,19.40
2023-04-12T04:58:54.116Z,19.40
2023-04-12T05:04:01.052Z,19.40
2023-04-12T05:09:05.464Z,19.50
2023-04-12T05:14:10.226Z,19.50
2023-04-12T05:19:16.783Z,19.40
2023-04-12T05:24:20.176Z,19.50
2023-04-12T05:29:23.504Z,19.50
2023-04-12T05:34:28.267Z,19.50
2023-04-12T05:39:31.978Z,19.40
2023-04-12T05:44:36.291Z,19.40
2023-04-12T05:49:41.113Z,19.40
2023-04-12T05:54:44.467Z,19.40
2023-04-12T05:59:47.830Z,19.40
2023-04-12T06:04:53.978Z,19.50
2023-04-12T06:09:57.425Z,19.30
2023-04-12T06:15:00.788Z,19.40
2023-04-12T06:20:08.029Z,19.50
2023-04-12T06:25:11.579Z,19.50
2023-04-12T06:30:15.137Z,19.40
2023-04-12T06:35:20.395Z,19.40
2023-04-12T06:40:23.746Z,19.40
2023-04-12T06:45:27.272Z,19.30
2023-04-12T06:50:32.017Z,19.40
2023-04-12T06:55:36.129Z,19.40
2023-04-12T07:00:39.511Z,19.40
2023-04-12T07:05:45.212Z,19.40
2023-04-12T07:10:54.949Z,19.40
2023-04-12T07:15:58.545Z,19.40
2023-04-12T07:21:03.395Z,19.40
2023-04-12T07:26:07.035Z,19.40
2023-04-12T07:31:10.533Z,19.40
2023-04-12T07:36:16.765Z,19.40
2023-04-12T07:41:20.363Z,19.40
2023-04-12T07:46:23.823Z,19.40
2023-04-12T07:51:28.712Z,19.40
2023-04-12T07:56:35.787Z,19.30
2023-04-12T08:01:39.189Z,19.30
2023-04-12T08:06:44.034Z,19.40
2023-04-12T08:11:48.216Z,19.40
2023-04-12T08:16:51.574Z,19.40
2023-04-12T08:21:56.881Z,19.40
2023-04-12T08:27:01.020Z,19.40
2023-04-12T08:32:05.316Z,19.30
2023-04-12T08:37:10.107Z,19.40
2023-04-12T08:42:16.138Z,19.40
2023-04-12T08:47:19.766Z,19.30
2023-04-12T08:52:24.585Z,19.40
2023-04-12T08:57:29.052Z,19.40
2023-04-12T09:02:33.764Z,19.40
2023-04-12T09:07:38.712Z,19.30
2023-04-12T09:12:48.126Z,19.40
2023-04-12T09:18:04.652Z,19.30
2023-04-12T09:23:22.497Z,19.20
2023-04-12T09:28:27.182Z,19.30
2023-04-12T09:33:37.553Z,19.30
2023-04-12T09:38:44.005Z,19.30
2023-04-12T09:43:47.382Z,19.20
2023-04-12T09:48:51.560Z,19.40
2023-04-12T09:53:59.666Z,19.30
2023-04-12T09:59:04.458Z,19.30
2023-04-12T10:04:09.189Z,19.30
2023-04-12T10:09:14.586Z,19.20
2023-04-12T10:14:19.084Z,19.30
2023-04-12T10:19:23.046Z,19.20
2023-04-12T10:24:29.436Z,19.30
2023-04-12T10:29:34.055Z,19.20
2023-04-12T10:34:37.531Z,19.30
2023-04-12T10:39:44.001Z,19.20
2023-04-12T10:44:48.383Z,19.30
2023-04-12T10:50:24.811Z,19.30
2023-04-12T10:55:33.997Z,19.20
2023-04-12T11:01:11.347Z,19.20
2023-04-12T11:11:24.867Z,19.30
2023-04-12T11:16:28.536Z,19.30
2023-04-12T11:21:32.208Z,19.20
2023-04-12T11:26:38.008Z,19.20
2023-04-12T11:31:41.693Z,19.30
2023-04-12T11:36:46.451Z,19.20
2023-04-12T11:41:51.473Z,19.20
2023-04-12T11:46:56.002Z,19.20
2023-04-12T11:52:07.218Z,19.20
2023-04-12T11:57:14.911Z,19.30
2023-04-12T12:02:24.045Z,19.20
2023-04-12T12:07:28.650Z,19.20
2023-04-12T12:12:35.261Z,19.30
2023-04-12T12:17:39.505Z,19.20
2023-04-12T12:22:47.559Z,19.30
2023-04-12T12:27:59.547Z,19.20
2023-04-12T12:33:03.139Z,19.30
2023-04-12T12:38:08.970Z,19.20
2023-04-12T12:43:19.372Z,19.20
2023-04-12T12:48:22.979Z,19.30
2023-04-12T12:53:26.475Z,19.20
2023-04-12T12:58:31.465Z,19.30
2023-04-12T13:03:35.463Z,19.20
2023-04-12T13:08:39.125Z,19.20
2023-04-12T13:13:43.933Z,19.20
2023-04-12T13:18:47.463Z,19.20
2023-04-12T13:23:50.945Z,19.20
2023-04-12T13:28:55.982Z,19.20
2023-04-12T13:33:59.651Z,19.20
2023-04-12T13:39:03.148Z,19.20
2023-04-12T13:44:08.122Z,19.20
2023-04-12T13:49:11.715Z,19.10
2023-04-12T13:54:17.605Z,19.20
2023-04-12T13:59:22.516Z,19.30
2023-04-12T14:04:29.413Z,19.30
2023-04-12T14:09:33.940Z,19.20
2023-04-12T14:14:38.823Z,19.20
2023-04-12T14:19:42.270Z,19.20
2023-04-12T14:24:46.475Z,19.20
2023-04-12T14:29:51.359Z,19.20
2023-04-12T14:34:54.820Z,19.20
2023-04-12T14:39:59.530Z,19.20
2023-04-12T14:45:05.557Z,19.30
2023-04-12T14:50:09.751Z,19.20
2023-04-12T14:55:13.257Z,19.20
2023-04-12T15:00:19.111Z,19.20
2023-04-12T15:05:22.797Z,19.20
2023-04-12T15:10:26.437Z,19.20
2023-04-12T15:15:31.384Z,19.20
2023-04-12T15:20:34.960Z,19.20
2023-04-12T15:25:38.367Z,19.20
2023-04-12T15:30:43.167Z,19.20
2023-04-12T15:35:46.902Z,19.30
2023-04-12T15:40:55.304Z,19.10
2023-04-12T15:46:01.779Z,18.50
2023-04-12T15:51:06.506Z,18.60
2023-04-12T15:56:12.296Z,18.60
2023-04-12T16:01:17.697Z,18.10
2023-04-12T16:06:21.691Z,18.10
2023-04-12T16:11:25.500Z,18.10
2023-04-12T16:16:30.483Z,18.20
2023-04-12T16:21:34.081Z,18.20
2023-04-12T16:26:37.566Z,18.10
2023-04-12T16:31:42.548Z,18.10
2023-04-12T16:36:46.041Z,18.00
2023-04-12T16:41:49.540Z,18.40
2023-04-12T16:46:54.430Z,18.70
2023-04-12T16:51:59.476Z,18.80
2023-04-12T16:57:02.855Z,18.90
2023-04-12T17:02:08.145Z,19.00
2023-04-12T17:07:12.065Z,19.00
2023-04-12T17:12:15.603Z,19.00
2023-04-12T17:17:20.617Z,18.90
2023-04-12T17:22:24.207Z,19.10
2023-04-12T17:27:27.695Z,19.00
2023-04-12T17:32:32.897Z,18.90
2023-04-12T17:37:37.059Z,19.00
2023-04-12T17:42:41.522Z,19.00
2023-04-12T17:47:46.460Z,19.00
2023-04-12T17:52:50.234Z,19.10
2023-04-12T17:57:54.096Z,19.00
2023-04-12T18:02:59.057Z,19.00
2023-04-12T18:08:03.443Z,18.90
2023-04-12T18:13:06.888Z,19.00
2023-04-12T18:18:11.795Z,19.00
2023-04-12T18:23:15.461Z,19.00
2023-04-12T18:28:19.125Z,19.00
2023-04-12T18:33:24.258Z,19.00
2023-04-12T18:38:32.618Z,19.00
2023-04-12T18:43:36.117Z,19.10
2023-04-12T18:48:41.913Z,18.90
2023-04-12T18:53:45.507Z,19.00
2023-04-12T18:58:55.248Z,18.90
2023-04-12T19:04:04.469Z,19.00
2023-04-12T19:09:09.019Z,18.90
2023-04-12T19:14:12.392Z,19.00
2023-04-12T19:19:17.138Z,18.90
2023-04-12T19:24:21.928Z,19.00
2023-04-12T19:29:26.257Z,19.00
2023-04-12T19:34:31.037Z,18.90
2023-04-12T19:39:34.483Z,19.00
2023-04-12T19:44:39.821Z,19.00
2023-04-12T19:49:45.207Z,18.90
2023-04-12T19:54:48.582Z,18.90
2023-04-12T19:59:52.320Z,18.90
2023-04-12T20:04:57.110Z,18.90
2023-04-12T20:10:01.174Z,18.90
2023-04-12T20:15:04.815Z,18.90
2023-04-12T20:20:12.799Z,18.80
2023-04-12T20:25:16.625Z,18.80
2023-04-12T20:30:21.057Z,18.80
2023-04-12T20:35:26.037Z,18.90
2023-04-12T20:40:30.087Z,18.80
2023-04-12T20:45:34.887Z,18.80
2023-04-12T20:50:41.035Z,18.80
2023-04-12T20:55:44.433Z,18.80
2023-04-12T21:00:48.115Z,18.80
2023-04-12T21:05:53.158Z,18.80
2023-04-12T21:10:56.479Z,18.80
2023-04-12T21:16:00.793Z,18.80
2023-04-12T21:21:06.120Z,18.80
2023-04-12T21:26:09.494Z,18.70
2023-04-12T21:31:12.985Z,18.80
2023-04-12T21:36:18.050Z,18.80
2023-04-12T21:41:21.632Z,18.70
2023-04-12T21:46:27.584Z,18.80
2023-04-12T21:51:32.986Z,18.80
2023-04-12T21:56:36.455Z,18.80
2023-04-12T22:01:39.879Z,18.80
2023-04-12T22:06:45.052Z,18.80
2023-04-12T22:11:49.265Z,18.70
2023-04-12T22:16:53.426Z,18.70
2023-04-12T22:21:58.343Z,18.70
2023-04-12T22:27:01.767Z,18.70
2023-04-12T22:32:05.224Z,18.70
2023-04-12T22:37:12.039Z,18.80
2023-04-12T22:42:20.875Z,18.70
2023-04-12T22:47:25.242Z,18.80
2023-04-12T22:52:31.193Z,18.70
2023-04-12T22:57:35.191Z,18.60
2023-04-12T23:02:39.368Z,18.70
2023-04-12T23:07:44.181Z,18.70
2023-04-12T23:12:49.253Z,18.60
2023-04-12T23:17:52.687Z,18.60
2023-04-12T23:22:58.886Z,18.60
2023-04-12T23:28:02.303Z,18.60
2023-04-12T23:33:05.783Z,18.60
2023-04-12T23:38:15.587Z,18.60
2023-04-12T23:43:20.261Z,18.60
2023-04-12T23:48:23.959Z,18.60
2023-04-12T23:53:28.772Z,18.60
2023-04-12T23:58:32.252Z,18.60
